createdAt,value
2023-05-21T00:01:26.911Z,6.22
2023-05-21T00:03:54.257Z,6.93
2023-05-21T00:06:23.300Z,6.78
2023-05-21T00:08:50.671Z,9.30
2023-05-21T00:11:18.152Z,6.70
2023-05-21T00:13:45.348Z,7.57
2023-05-21T00:16:12.716Z,6.40
2023-05-21T00:18:39.939Z,12.27
2023-05-21T00:21:07.705Z,10.85
2023-05-21T00:23:36.630Z,8.68
2023-05-21T00:26:04.198Z,7.40
2023-05-21T00:28:31.257Z,7.68
2023-05-21T00:30:58.629Z,6.18
2023-05-21T00:33:29.313Z,9.23
2023-05-21T00:35:57.398Z,7.55
2023-05-21T00:38:27.877Z,8.30
2023-05-21T00:40:55.261Z,9.75
2023-05-21T00:43:26.172Z,8.25
2023-05-21T00:45:53.923Z,7.50
2023-05-21T00:48:21.257Z,7.68
2023-05-21T00:50:49.526Z,8.00
2023-05-21T00:53:19.325Z,7.93
2023-05-21T00:55:48.203Z,10.13
2023-05-21T00:58:17.831Z,9.73
2023-05-21T01:00:45.884Z,9.13
2023-05-21T01:03:13.840Z,8.57
2023-05-21T01:05:45.117Z,9.88
2023-05-21T01:08:12.918Z,11.65
2023-05-21T01:10:40.460Z,8.63
2023-05-21T01:13:08.309Z,10.88
2023-05-21T01:15:38.014Z,11.15
2023-05-21T01:18:06.177Z,12.38
2023-05-21T01:20:33.797Z,10.32
2023-05-21T01:23:02.068Z,10.10
2023-05-21T01:25:30.298Z,12.15
2023-05-21T01:27:57.974Z,9.50
2023-05-21T01:30:25.902Z,9.45
2023-05-21T01:32:53.069Z,12.77
2023-05-21T01:35:31.167Z,9.75
2023-05-21T01:38:26.392Z,12.30
2023-05-21T01:40:55.731Z,10.75
2023-05-21T01:43:23.624Z,10.27
2023-05-21T01:45:55.364Z,9.05
2023-05-21T01:48:25.006Z,11.30
2023-05-21T01:50:55.270Z,12.15
2023-05-21T01:53:22.669Z,13.40
2023-05-21T01:55:50.219Z,10.75
2023-05-21T01:58:18.497Z,12.35
2023-05-21T02:00:46.643Z,11.95
2023-05-21T02:03:17.699Z,12.85
2023-05-21T02:05:45.376Z,13.90
2023-05-21T02:08:12.942Z,12.75
2023-05-21T02:10:40.670Z,12.02
2023-05-21T02:13:07.803Z,17.65
2023-05-21T02:15:35.473Z,9.80
2023-05-21T02:18:03.991Z,12.43
2023-05-21T02:20:31.954Z,13.32
2023-05-21T02:22:58.992Z,12.55
2023-05-21T02:25:26.368Z,11.95
2023-05-21T02:27:54.098Z,12.15
2023-05-21T02:30:21.663Z,12.50
2023-05-21T02:32:49.975Z,10.80
2023-05-21T02:35:17.457Z,11.70
2023-05-21T02:37:44.686Z,12.18
2023-05-21T02:40:12.919Z,10.50
2023-05-21T02:42:41.469Z,11.80
2023-05-21T02:45:12.919Z,15.75
2023-05-21T02:47:42.301Z,11.63
2023-05-21T02:50:09.906Z,14.32
2023-05-21T02:52:44.194Z,12.43
2023-05-21T02:55:11.790Z,11.00
2023-05-21T02:57:38.830Z,11.52
2023-05-21T03:00:08.290Z,10.18
2023-05-21T03:02:36.243Z,14.45
2023-05-21T03:05:03.923Z,12.50
2023-05-21T03:07:31.707Z,14.07
2023-05-21T03:09:59.408Z,14.23
2023-05-21T03:12:26.484Z,11.25
2023-05-21T03:14:54.132Z,11.48
2023-05-21T03:17:22.308Z,11.52
2023-05-21T03:19:49.809Z,11.10
2023-05-21T03:22:17.316Z,15.52
2023-05-21T03:24:45.372Z,18.88
2023-05-21T03:27:14.157Z,17.42
2023-05-21T03:29:43.251Z,15.25
2023-05-21T03:32:11.502Z,13.13
2023-05-21T03:34:38.977Z,14.75
2023-05-21T03:37:06.592Z,14.45
2023-05-21T03:39:34.838Z,11.30
2023-05-21T03:42:02.308Z,14.50
2023-05-21T03:44:52.156Z,11.18
2023-05-21T03:47:37.786Z,13.52
2023-05-21T03:50:09.448Z,13.85
2023-05-21T03:52:37.183Z,14.07
2023-05-21T03:55:06.157Z,15.77
2023-05-21T03:57:33.389Z,24.10
2023-05-21T04:00:00.849Z,15.43
2023-05-21T04:02:28.178Z,14.05
2023-05-21T04:04:56.034Z,12.98
2023-05-21T04:07:24.445Z,14.10
2023-05-21T04:09:51.851Z,10.98
2023-05-21T04:12:20.341Z,9.77
2023-05-21T04:14:48.252Z,8.23
2023-05-21T04:17:15.339Z,6.43
2023-05-21T04:19:42.759Z,8.45
2023-05-21T04:22:12.115Z,7.57
2023-05-21T04:24:39.875Z,6.30
2023-05-21T04:27:14.205Z,6.30
2023-05-21T04:29:42.789Z,7.55
2023-05-21T04:32:10.082Z,7.57
2023-05-21T04:34:37.897Z,6.18
2023-05-21T04:37:05.115Z,6.93
2023-05-21T04:39:32.659Z,10.38
2023-05-21T04:41:59.795Z,5.07
2023-05-21T04:44:27.154Z,8.13
2023-05-21T04:46:55.146Z,6.65
2023-05-21T04:49:22.711Z,5.53
2023-05-21T04:51:49.878Z,4.68
2023-05-21T04:54:17.324Z,6.32
2023-05-21T04:56:44.768Z,6.22
2023-05-21T04:59:12.187Z,5.72
2023-05-21T05:01:39.291Z,6.75
2023-05-21T05:04:07.002Z,6.22
2023-05-21T05:06:34.163Z,6.47
2023-05-21T05:09:01.560Z,6.55
2023-05-21T05:11:28.742Z,6.75
2023-05-21T05:13:56.926Z,6.68
2023-05-21T05:16:27.971Z,10.15
2023-05-21T05:18:57.543Z,5.80
2023-05-21T05:21:25.041Z,5.40
2023-05-21T05:23:52.470Z,6.28
2023-05-21T05:26:23.560Z,8.38
2023-05-21T05:28:50.993Z,5.50
2023-05-21T05:31:18.922Z,6.57
2023-05-21T05:33:46.969Z,6.72
2023-05-21T05:36:14.414Z,5.10
2023-05-21T05:38:41.755Z,11.52
2023-05-21T05:41:09.057Z,6.60
2023-05-21T05:43:36.778Z,6.43
2023-05-21T05:46:04.012Z,5.25
2023-05-21T05:48:31.462Z,7.40
2023-05-21T05:50:59.262Z,6.63
2023-05-21T05:53:27.207Z,7.28
2023-05-21T05:55:54.634Z,6.07
2023-05-21T05:58:22.090Z,12.02
2023-05-21T06:01:13.628Z,6.47
2023-05-21T06:03:41.642Z,8.68
2023-05-21T06:06:14.976Z,7.47
2023-05-21T06:08:42.851Z,6.88
2023-05-21T06:11:10.958Z,11.60
2023-05-21T06:13:38.750Z,5.35
2023-05-21T06:16:10.037Z,7.88
2023-05-21T06:18:38.459Z,5.47
2023-05-21T06:21:05.670Z,5.60
2023-05-21T06:23:33.183Z,5.53
2023-05-21T06:26:00.814Z,6.07
2023-05-21T06:28:28.318Z,5.47
2023-05-21T06:30:58.313Z,7.22
2023-05-21T06:33:27.695Z,5.30
2023-05-21T06:35:55.943Z,5.60
2023-05-21T06:38:24.261Z,7.32
2023-05-21T06:40:51.288Z,5.00
2023-05-21T06:43:34.878Z,7.25
2023-05-21T06:46:20.434Z,5.65
2023-05-21T06:48:47.961Z,4.68
2023-05-21T06:51:15.298Z,8.00
2023-05-21T06:53:43.189Z,8.23
2023-05-21T06:56:10.497Z,6.55
2023-05-21T06:58:41.719Z,6.63
2023-05-21T07:01:08.914Z,5.88
2023-05-21T07:03:36.787Z,10.18
2023-05-21T07:06:04.092Z,5.35
2023-05-21T07:08:31.652Z,5.38
2023-05-21T07:11:00.102Z,4.85
2023-05-21T07:13:27.799Z,4.80
2023-05-21T07:15:55.692Z,4.82
2023-05-21T07:18:23.047Z,8.68
2023-05-21T07:20:50.542Z,8.82
2023-05-21T07:23:17.976Z,6.70
2023-05-21T07:25:46.349Z,5.28
2023-05-21T07:28:14.804Z,7.03
2023-05-21T07:30:42.037Z,4.65
2023-05-21T07:33:14.362Z,6.00
2023-05-21T07:35:41.620Z,9.55
2023-05-21T07:38:09.124Z,8.98
2023-05-21T07:40:36.397Z,7.68
2023-05-21T07:43:04.580Z,7.45
2023-05-21T07:45:33.890Z,6.63
2023-05-21T07:48:01.503Z,6.35
2023-05-21T07:50:31.868Z,6.30
2023-05-21T07:52:59.347Z,5.82
2023-05-21T07:55:26.457Z,6.43
2023-05-21T07:57:55.200Z,5.43
2023-05-21T08:00:29.697Z,6.85
2023-05-21T08:02:58.441Z,4.68
2023-05-21T08:05:26.532Z,4.80
2023-05-21T08:07:53.992Z,5.03
2023-05-21T08:10:21.859Z,5.70
2023-05-21T08:12:51.167Z,4.20
2023-05-21T08:15:19.022Z,4.95
2023-05-21T08:17:46.742Z,7.72
2023-05-21T08:20:15.210Z,5.18
2023-05-21T08:22:44.636Z,7.38
2023-05-21T08:25:12.239Z,5.28
2023-05-21T08:27:39.833Z,5.05
2023-05-21T08:30:07.932Z,4.40
2023-05-21T08:32:36.259Z,5.93
2023-05-21T08:35:04.033Z,5.28
2023-05-21T08:38:03.891Z,4.30
2023-05-21T08:40:41.574Z,4.28
2023-05-21T08:43:13.904Z,5.95
2023-05-21T08:45:57.298Z,4.18
2023-05-21T08:48:28.161Z,4.97
2023-05-21T08:50:55.693Z,4.45
2023-05-21T08:53:33.495Z,7.60
2023-05-21T08:56:01.859Z,7.25
2023-05-21T08:58:45.263Z,5.53
2023-05-21T09:01:13.194Z,4.43
2023-05-21T09:03:46.226Z,6.50
2023-05-21T09:06:16.776Z,8.25
2023-05-21T09:08:49.919Z,7.03
2023-05-21T09:11:23.278Z,3.97
2023-05-21T09:13:57.918Z,5.97
2023-05-21T09:19:03.021Z,4.50
2023-05-21T09:21:34.133Z,5.22
2023-05-21T09:24:11.183Z,4.10
2023-05-21T09:26:42.739Z,4.25
2023-05-21T09:29:10.559Z,5.72
2023-05-21T09:31:46.564Z,5.95
2023-05-21T09:34:14.999Z,5.00
2023-05-21T09:36:47.158Z,4.22
2023-05-21T09:39:29.894Z,3.03
2023-05-21T09:42:00.478Z,4.03
2023-05-21T09:44:28.083Z,5.18
2023-05-21T09:46:59.573Z,4.13
2023-05-21T09:49:28.096Z,4.93
2023-05-21T09:51:59.974Z,5.65
2023-05-21T09:54:33.339Z,3.33
2023-05-21T09:57:02.654Z,6.15
2023-05-21T09:59:40.052Z,4.82
2023-05-21T10:02:37.970Z,8.23
2023-05-21T10:05:10.390Z,4.05
2023-05-21T10:07:38.394Z,5.20
2023-05-21T10:10:09.234Z,3.58
2023-05-21T10:12:36.860Z,3.17
2023-05-21T10:15:08.215Z,5.20
2023-05-21T10:17:36.243Z,4.60
2023-05-21T10:20:05.238Z,4.18
2023-05-21T10:22:33.501Z,3.28
2023-05-21T10:25:03.656Z,4.38
2023-05-21T10:27:32.793Z,4.65
2023-05-21T10:30:00.697Z,4.18
2023-05-21T10:32:28.244Z,4.72
2023-05-21T10:34:58.591Z,8.93
2023-05-21T10:37:27.736Z,4.80
2023-05-21T10:39:56.294Z,6.05
2023-05-21T10:42:32.393Z,6.35
2023-05-21T10:45:32.670Z,6.72
2023-05-21T10:48:26.185Z,5.97
2023-05-21T10:51:50.733Z,5.05
2023-05-21T10:54:42.322Z,6.25
2023-05-21T10:57:45.918Z,3.90
2023-05-21T11:00:16.847Z,3.17
2023-05-21T11:02:45.897Z,6.30
2023-05-21T11:05:13.214Z,6.70
2023-05-21T11:07:56.842Z,6.25
2023-05-21T11:10:35.691Z,4.75
2023-05-21T11:13:16.828Z,10.98
2023-05-21T11:16:01.447Z,3.85
2023-05-21T11:18:38.035Z,7.03
2023-05-21T11:23:52.470Z,7.72
2023-05-21T11:26:27.187Z,5.10
2023-05-21T11:29:03.467Z,3.38
2023-05-21T11:31:38.409Z,5.50
2023-05-21T11:34:19.143Z,6.20
2023-05-21T11:36:50.011Z,7.03
2023-05-21T11:39:22.313Z,4.97
2023-05-21T11:42:03.117Z,4.70
2023-05-21T11:44:44.468Z,3.72
2023-05-21T11:47:15.066Z,4.97
2023-05-21T11:49:42.794Z,4.20
2023-05-21T11:52:11.825Z,7.55
2023-05-21T11:54:48.649Z,7.20
2023-05-21T11:57:17.396Z,5.28
2023-05-21T11:59:51.348Z,6.88
2023-05-21T12:02:22.718Z,4.00
2023-05-21T12:04:51.591Z,5.70
2023-05-21T12:07:20.304Z,6.97
2023-05-21T12:09:51.993Z,5.35
2023-05-21T12:12:25.210Z,5.00
2023-05-21T12:14:55.337Z,4.35
2023-05-21T12:17:24.312Z,4.82
2023-05-21T12:19:53.692Z,5.45
2023-05-21T12:22:21.451Z,6.72
2023-05-21T12:24:48.965Z,5.18
2023-05-21T12:27:16.908Z,5.85
2023-05-21T12:29:46.673Z,4.15
2023-05-21T12:32:16.234Z,4.13
2023-05-21T12:34:44.673Z,3.90
2023-05-21T12:37:27.778Z,5.00
2023-05-21T12:39:57.924Z,4.18
2023-05-21T12:42:27.353Z,4.07
2023-05-21T12:44:54.910Z,3.45
2023-05-21T12:47:26.684Z,4.28
2023-05-21T12:49:58.083Z,3.13
2023-05-21T12:52:25.821Z,3.92
2023-05-21T12:54:56.347Z,4.70
2023-05-21T12:57:34.778Z,3.53
2023-05-21T13:00:04.446Z,2.90
2023-05-21T13:02:38.806Z,4.68
2023-05-21T13:05:08.524Z,5.82
2023-05-21T13:07:39.607Z,5.30
2023-05-21T13:10:07.759Z,4.68
2023-05-21T13:12:35.838Z,5.78
2023-05-21T13:15:05.833Z,3.83
2023-05-21T13:17:33.012Z,4.53
2023-05-21T13:20:18.236Z,3.85
2023-05-21T13:22:53.089Z,3.33
2023-05-21T13:25:24.641Z,4.20
2023-05-21T13:27:53.309Z,3.60
2023-05-21T13:30:21.924Z,5.40
2023-05-21T13:32:49.353Z,4.35
2023-05-21T13:35:17.287Z,4.20
2023-05-21T13:37:45.232Z,6.22
2023-05-21T13:40:17.383Z,6.00
2023-05-21T13:42:46.854Z,3.05
2023-05-21T13:45:16.493Z,3.85
2023-05-21T13:47:44.745Z,3.50
2023-05-21T13:50:13.036Z,4.07
2023-05-21T13:52:40.504Z,6.07
2023-05-21T13:55:08.389Z,4.15
2023-05-21T13:57:35.522Z,4.53
2023-05-21T14:00:04.720Z,4.47
2023-05-21T14:02:35.083Z,7.47
2023-05-21T14:05:02.651Z,3.83
2023-05-21T14:07:29.758Z,3.92
2023-05-21T14:09:57.448Z,4.28
2023-05-21T14:12:24.485Z,4.05
2023-05-21T14:14:52.014Z,4.85
2023-05-21T14:17:19.184Z,3.00
2023-05-21T14:19:48.056Z,2.95
2023-05-21T14:22:15.168Z,3.72
2023-05-21T14:24:42.885Z,4.75
2023-05-21T14:27:12.594Z,5.15
2023-05-21T14:29:41.337Z,3.35
2023-05-21T14:32:08.485Z,3.90
2023-05-21T14:34:35.872Z,3.92
2023-05-21T14:37:03.209Z,5.78
2023-05-21T14:39:31.110Z,3.75
2023-05-21T14:41:58.205Z,4.13
2023-05-21T14:44:25.541Z,12.35
2023-05-21T14:46:52.738Z,4.25
2023-05-21T14:49:20.165Z,5.32
2023-05-21T14:51:47.679Z,5.28
2023-05-21T14:54:15.316Z,4.38
2023-05-21T14:56:42.406Z,4.85
2023-05-21T14:59:11.424Z,5.07
2023-05-21T15:01:39.405Z,3.13
2023-05-21T15:04:07.895Z,5.13
2023-05-21T15:06:35.320Z,4.20
2023-05-21T15:09:02.889Z,4.47
2023-05-21T15:11:29.967Z,4.25
2023-05-21T15:13:57.559Z,3.80
2023-05-21T15:16:24.710Z,3.53
2023-05-21T15:18:52.115Z,4.32
2023-05-21T15:21:19.845Z,5.65
2023-05-21T15:23:47.294Z,4.57
2023-05-21T15:26:14.326Z,5.63
2023-05-21T15:28:41.839Z,3.80
2023-05-21T15:31:09.028Z,4.60
2023-05-21T15:33:37.015Z,5.28
2023-05-21T15:36:04.266Z,3.85
2023-05-21T15:38:32.807Z,4.03
2023-05-21T15:41:00.014Z,6.45
2023-05-21T15:43:27.351Z,4.32
2023-05-21T15:45:54.400Z,3.70
2023-05-21T15:48:23.061Z,3.42
2023-05-21T15:50:50.293Z,3.63
2023-05-21T15:53:17.653Z,3.78
2023-05-21T15:55:44.894Z,4.50
2023-05-21T15:58:12.262Z,4.20
2023-05-21T16:00:39.559Z,4.10
2023-05-21T16:03:07.119Z,4.32
2023-05-21T16:05:34.619Z,3.85
2023-05-21T16:08:02.152Z,7.78
2023-05-21T16:10:29.300Z,4.88
2023-05-21T16:12:56.929Z,4.70
2023-05-21T16:15:24.027Z,7.72
2023-05-21T16:17:51.471Z,4.43
2023-05-21T16:20:18.864Z,6.35
2023-05-21T16:22:46.574Z,3.22
2023-05-21T16:25:13.640Z,3.28
2023-05-21T16:27:41.100Z,4.70
2023-05-21T16:30:08.693Z,5.57
2023-05-21T16:32:36.223Z,4.57
2023-05-21T16:35:03.749Z,4.40
2023-05-21T16:37:31.124Z,3.58
2023-05-21T16:39:58.195Z,5.78
2023-05-21T16:42:25.642Z,3.88
2023-05-21T16:44:52.732Z,3.65
2023-05-21T16:47:20.207Z,3.70
2023-05-21T16:49:47.321Z,5.70
2023-05-21T16:52:14.761Z,5.38
2023-05-21T16:54:44.061Z,4.50
2023-05-21T16:57:13.106Z,5.82
2023-05-21T16:59:40.173Z,5.78
2023-05-21T17:02:16.558Z,5.75
2023-05-21T17:05:04.920Z,4.45
2023-05-21T17:07:32.334Z,8.10
2023-05-21T17:09:59.358Z,6.40
2023-05-21T17:12:26.750Z,4.07
2023-05-21T17:14:54.013Z,5.45
2023-05-21T17:17:21.379Z,5.55
2023-05-21T17:19:48.405Z,5.65
2023-05-21T17:22:15.750Z,9.55
2023-05-21T17:24:43.001Z,7.20
2023-05-21T17:27:10.989Z,5.57
2023-05-21T17:29:38.293Z,10.10
2023-05-21T17:32:06.257Z,7.55
2023-05-21T17:34:33.374Z,6.50
2023-05-21T17:37:00.723Z,6.75
2023-05-21T17:39:27.840Z,7.05
2023-05-21T17:41:56.373Z,8.93
2023-05-21T17:44:23.585Z,4.72
2023-05-21T17:46:52.045Z,7.30
2023-05-21T17:49:19.408Z,6.63
2023-05-21T17:51:47.955Z,5.38
2023-05-21T17:54:15.194Z,5.03
2023-05-21T17:56:44.211Z,7.50
2023-05-21T17:59:14.215Z,5.57
2023-05-21T18:01:41.732Z,7.07
2023-05-21T18:04:10.874Z,5.22
2023-05-21T18:06:38.981Z,5.88
2023-05-21T18:09:07.996Z,5.63
2023-05-21T18:11:35.546Z,7.13
2023-05-21T18:14:04.023Z,6.50
2023-05-21T18:16:31.733Z,5.78
2023-05-21T18:19:02.044Z,5.20
2023-05-21T18:21:29.662Z,5.90
2023-05-21T18:23:56.751Z,6.93
2023-05-21T18:26:25.112Z,6.68
2023-05-21T18:28:52.152Z,6.43
2023-05-21T18:31:20.265Z,6.07
2023-05-21T18:33:47.433Z,6.00
2023-05-21T18:36:14.870Z,8.10
2023-05-21T18:38:41.897Z,7.68
2023-05-21T18:41:09.480Z,6.22
2023-05-21T18:43:36.988Z,5.45
2023-05-21T18:46:04.676Z,5.63
2023-05-21T18:48:31.840Z,5.40
2023-05-21T18:50:59.229Z,4.82
2023-05-21T18:53:26.313Z,8.15
2023-05-21T18:55:53.652Z,8.32
2023-05-21T18:58:20.952Z,7.88
2023-05-21T19:00:48.277Z,5.97
2023-05-21T19:03:16.265Z,4.68
2023-05-21T19:05:43.626Z,10.15
2023-05-21T19:08:10.974Z,8.38
2023-05-21T19:10:39.349Z,5.95
2023-05-21T19:13:06.703Z,9.82
2023-05-21T19:15:34.364Z,5.97
2023-05-21T19:18:03.531Z,6.10
2023-05-21T19:20:31.132Z,7.30
2023-05-21T19:22:58.494Z,7.10
2023-05-21T19:25:26.007Z,10.75
2023-05-21T19:27:53.176Z,7.40
2023-05-21T19:30:20.683Z,10.80
2023-05-21T19:32:48.097Z,7.68
2023-05-21T19:35:16.544Z,8.13
2023-05-21T19:37:43.786Z,8.57
2023-05-21T19:40:11.559Z,6.80
2023-05-21T19:42:39.889Z,11.10
2023-05-21T19:45:09.674Z,10.95
2023-05-21T19:47:36.938Z,7.80
2023-05-21T19:50:04.804Z,9.43
2023-05-21T19:52:32.053Z,9.75
2023-05-21T19:55:04.698Z,6.18
2023-05-21T19:57:34.890Z,8.40
2023-05-21T20:00:02.398Z,8.10
2023-05-21T20:02:40.765Z,10.32
2023-05-21T20:05:09.313Z,8.18
2023-05-21T20:07:36.376Z,10.35
2023-05-21T20:10:04.317Z,8.25
2023-05-21T20:12:31.410Z,7.75
2023-05-21T20:15:00.202Z,8.45
2023-05-21T20:17:28.731Z,9.32
2023-05-21T20:19:57.399Z,9.05
2023-05-21T20:22:24.479Z,11.25
2023-05-21T20:24:51.876Z,10.48
2023-05-21T20:27:19.472Z,9.63
2023-05-21T20:29:47.165Z,9.90
2023-05-21T20:32:14.209Z,8.23
2023-05-21T20:34:54.223Z,10.27
2023-05-21T20:37:28.755Z,10.23
2023-05-21T20:39:58.089Z,8.57
2023-05-21T20:42:28.481Z,9.07
2023-05-21T20:44:58.871Z,11.10
2023-05-21T20:47:29.949Z,9.98
2023-05-21T20:50:02.800Z,14.98
2023-05-21T20:52:29.950Z,15.65
2023-05-21T20:55:01.065Z,10.73
2023-05-21T20:57:28.697Z,13.23
2023-05-21T20:59:56.279Z,14.82
2023-05-21T21:02:23.606Z,10.73
2023-05-21T21:04:51.041Z,14.93
2023-05-21T21:07:18.640Z,13.82
2023-05-21T21:09:47.073Z,15.10
2023-05-21T21:12:25.437Z,10.93
2023-05-21T21:14:54.491Z,11.48
2023-05-21T21:17:21.718Z,12.00
2023-05-21T21:19:49.141Z,15.05
2023-05-21T21:22:16.697Z,12.85
2023-05-21T21:24:44.526Z,18.40
2023-05-21T21:27:11.642Z,15.23
2023-05-21T21:29:39.071Z,13.18
2023-05-21T21:32:06.687Z,11.90
2023-05-21T21:34:34.058Z,14.75
2023-05-21T21:37:01.203Z,14.57
2023-05-21T21:39:28.590Z,15.85
2023-05-21T21:41:55.779Z,11.30
2023-05-21T21:44:23.149Z,11.35
2023-05-21T21:46:50.418Z,18.98
2023-05-21T21:49:17.802Z,18.33
2023-05-21T21:51:45.332Z,14.73
2023-05-21T21:54:12.790Z,15.75
2023-05-21T21:56:39.977Z,14.05
2023-05-21T21:59:07.417Z,11.90
2023-05-21T22:01:35.749Z,11.60
2023-05-21T22:04:03.218Z,14.55
2023-05-21T22:06:31.341Z,15.70
2023-05-21T22:08:59.101Z,15.35
2023-05-21T22:11:28.454Z,13.98
2023-05-21T22:13:56.152Z,17.52
2023-05-21T22:16:24.929Z,14.88
2023-05-21T22:18:54.244Z,16.30
2023-05-21T22:21:21.760Z,12.95
2023-05-21T22:23:49.088Z,14.85
2023-05-21T22:26:16.196Z,14.23
2023-05-21T22:28:43.661Z,12.75
2023-05-21T22:31:11.088Z,13.82
2023-05-21T22:33:39.302Z,13.27
2023-05-21T22:36:06.666Z,12.18
2023-05-21T22:38:34.349Z,13.07
2023-05-21T22:41:01.506Z,13.68
2023-05-21T22:43:29.043Z,14.10
2023-05-21T22:45:56.109Z,14.02
2023-05-21T22:48:23.544Z,13.60
2023-05-21T22:50:53.321Z,12.48
2023-05-21T22:53:20.986Z,12.95
2023-05-21T22:55:48.074Z,12.25
2023-05-21T22:58:15.585Z,13.90
2023-05-21T23:00:43.116Z,16.13
2023-05-21T23:03:11.420Z,12.93
2023-05-21T23:05:38.649Z,14.30
2023-05-21T23:08:06.120Z,14.48
2023-05-21T23:10:35.600Z,14.48
2023-05-21T23:13:03.157Z,13.40
2023-05-21T23:15:30.585Z,13.85
2023-05-21T23:17:58.096Z,14.68
2023-05-21T23:20:25.222Z,12.73
2023-05-21T23:22:52.689Z,11.77
2023-05-21T23:25:19.703Z,11.40
2023-05-21T23:27:47.121Z,12.45
2023-05-21T23:30:14.368Z,12.90
2023-05-21T23:32:41.772Z,11.95
2023-05-21T23:35:09.845Z,13.52
2023-05-21T23:37:37.298Z,13.10
2023-05-21T23:40:05.307Z,13.85
2023-05-21T23:42:32.664Z,12.98
2023-05-21T23:44:59.754Z,16.42
2023-05-21T23:47:27.118Z,12.43
2023-05-21T23:49:54.206Z,12.75
2023-05-21T23:52:23.490Z,11.68
2023-05-21T23:54:50.549Z,14.90
2023-05-21T23:57:18.145Z,14.65
2023-05-21T23:59:45.238Z,14.15
